Time;durP1;ratioP1;P1;durP2;ratioP2;P2;SDS_P1;SDS_P2;PMS_P1;PMS_P2;Temp;Humidity;BMP_temperature;BMP_pressure;BME280_temperature;BME280_humidity;BME280_pressure;Samples;Min_cycle;Max_cycle;Signal;HPM_P1;HPM_P2
2021/03/12 00:02:39;;;;;;;0.80;0.60;;;;;;;;;;6223705;23;20195;-89
2021/03/12 00:05:44;;;;;;;2.57;0.80;;;;;;;;;;6223884;23;20171;-89
2021/03/12 00:08:49;;;;;;;2.83;0.50;;;;;;;;;;6222897;23;20266;-88
2021/03/12 00:11:54;;;;;;;1.20;0.50;;;;;;;;;;6227078;23;20236;-87
2021/03/12 00:14:59;;;;;;;2.23;0.70;;;;;;;;;;6230767;23;20168;-89
2021/03/12 00:18:04;;;;;;;2.57;0.60;;;;;;;;;;6223917;23;20195;-88
2021/03/12 00:21:08;;;;;;;1.83;0.67;;;;;;;;;;6223730;23;20167;-89
2021/03/12 00:24:13;;;;;;;4.27;0.67;;;;;;;;;;6224216;23;20504;-90
2021/03/12 00:27:18;;;;;;;2.27;0.70;;;;;;;;;;6222680;23;20214;-89
2021/03/12 00:30:23;;;;;;;2.33;0.60;;;;;;;;;;6224314;23;20263;-88
2021/03/12 00:33:29;;;;;;;3.70;0.53;;;;;;;;;;6223364;23;20199;-89
2021/03/12 00:36:33;;;;;;;4.37;0.80;;;;;;;;;;6223908;23;20187;-87
2021/03/12 00:39:38;;;;;;;3.17;0.80;;;;;;;;;;6224629;23;20195;-89
2021/03/12 00:42:47;;;;;;;3.80;0.60;;;;;;;;;;6222718;23;20171;-89
2021/03/12 00:45:53;;;;;;;3.40;0.87;;;;;;;;;;6223542;23;20175;-88
2021/03/12 00:49:01;;;;;;;3.40;0.60;;;;;;;;;;6229610;23;20171;-89
2021/03/12 00:52:09;;;;;;;1.47;0.63;;;;;;;;;;6230657;23;20168;-90
2021/03/12 00:55:15;;;;;;;3.97;0.70;;;;;;;;;;6225188;23;20175;-90
2021/03/12 00:58:25;;;;;;;2.50;0.73;;;;;;;;;;6223899;23;20210;-89
2021/03/12 01:01:36;;;;;;;2.73;0.80;;;;;;;;;;6226346;23;20175;-90
2021/03/12 01:04:40;;;;;;;6.17;0.90;;;;;;;;;;6223382;23;20510;-90
2021/03/12 01:07:50;;;;;;;7.87;1.50;;;;;;;;;;6223783;23;20266;-91
2021/03/12 01:11:01;;;;;;;3.20;0.77;;;;;;;;;;6224642;23;20174;-89
2021/03/12 01:14:08;;;;;;;2.17;0.77;;;;;;;;;;6223273;23;20171;-88
2021/03/12 01:17:18;;;;;;;1.57;0.70;;;;;;;;;;6225122;23;20239;-89
2021/03/12 01:20:23;;;;;;;3.30;0.80;;;;;;;;;;6225495;23;20611;-87
2021/03/12 01:23:28;;;;;;;2.57;0.80;;;;;;;;;;6225474;23;20222;-89
2021/03/12 01:26:33;;;;;;;4.53;0.80;;;;;;;;;;6224676;23;20198;-90
2021/03/12 01:29:46;;;;;;;2.20;0.60;;;;;;;;;;6225470;23;20295;-88
2021/03/12 01:32:58;;;;;;;1.33;1.00;;;;;;;;;;6224042;23;20170;-89
2021/03/12 01:36:03;;;;;;;1.47;0.70;;;;;;;;;;6224177;23;20175;-89
2021/03/12 01:39:20;;;;;;;1.23;0.80;;;;;;;;;;6223937;23;20171;-89
2021/03/12 01:42:28;;;;;;;0.90;0.60;;;;;;;;;;6223964;23;20171;-91
2021/03/12 01:45:35;;;;;;;3.73;0.70;;;;;;;;;;6223299;22;20207;-90
2021/03/12 01:48:40;;;;;;;3.67;0.70;;;;;;;;;;6222345;22;20544;-89
2021/03/12 01:51:44;;;;;;;2.10;0.70;;;;;;;;;;6223957;23;20744;-90
2021/03/12 01:54:49;;;;;;;0.70;0.60;;;;;;;;;;6223130;23;20175;-88
2021/03/12 01:57:55;;;;;;;1.83;0.60;;;;;;;;;;6224327;23;20210;-91
2021/03/12 02:01:07;;;;;;;2.40;0.60;;;;;;;;;;6223561;23;20194;-88
2021/03/12 02:04:19;;;;;;;0.50;0.50;;;;;;;;;;6223248;23;20180;-89
2021/03/12 02:07:39;;;;;;;1.30;0.60;;;;;;;;;;6224125;23;20212;-89
2021/03/12 02:11:01;;;;;;;0.80;0.50;;;;;;;;;;6224588;23;20197;-89
2021/03/12 02:14:12;;;;;;;1.00;0.60;;;;;;;;;;6222698;23;20175;-89
2021/03/12 02:17:20;;;;;;;4.80;0.80;;;;;;;;;;6222746;23;20278;-90
2021/03/12 02:20:33;;;;;;;2.63;0.53;;;;;;;;;;6205549;23;20167;-88
2021/03/12 02:23:54;;;;;;;1.00;0.60;;;;;;;;;;6222541;23;20171;-87
2021/03/12 02:27:05;;;;;;;5.40;0.70;;;;;;;;;;6223101;23;20216;-89
2021/03/12 02:30:15;;;;;;;0.97;0.40;;;;;;;;;;6222967;23;20166;-90
2021/03/12 02:33:24;;;;;;;1.30;0.70;;;;;;;;;;6207404;23;20234;-89
2021/03/12 02:36:34;;;;;;;2.20;0.90;;;;;;;;;;6223368;23;20182;-89
2021/03/12 02:39:44;;;;;;;3.70;0.60;;;;;;;;;;6224017;23;20191;-91
2021/03/12 02:42:50;;;;;;;0.60;0.50;;;;;;;;;;6206827;23;20174;-89
2021/03/12 02:45:55;;;;;;;3.30;0.60;;;;;;;;;;6224698;23;20178;-88
2021/03/12 02:49:02;;;;;;;1.63;0.67;;;;;;;;;;6223309;23;20225;-91
2021/03/12 02:52:08;;;;;;;1.50;0.50;;;;;;;;;;6223033;23;20594;-90
2021/03/12 02:55:13;;;;;;;3.07;0.53;;;;;;;;;;6222885;23;20179;-90
2021/03/12 02:58:39;;;;;;;2.23;0.50;;;;;;;;;;6222865;23;20198;-89
2021/03/12 03:01:44;;;;;;;2.77;0.50;;;;;;;;;;6227987;23;20213;-88
2021/03/12 03:04:57;;;;;;;1.23;0.57;;;;;;;;;;6223501;23;20218;-90
2021/03/12 03:08:16;;;;;;;3.47;0.60;;;;;;;;;;6224331;23;20167;-89
2021/03/12 03:11:21;;;;;;;0.80;0.47;;;;;;;;;;6223756;23;20162;-89
2021/03/12 03:14:29;;;;;;;2.67;0.60;;;;;;;;;;6222782;23;20171;-89
2021/03/12 03:17:36;;;;;;;1.63;0.80;;;;;;;;;;6223440;23;20194;-89
2021/03/12 03:20:41;;;;;;;2.23;0.50;;;;;;;;;;6224800;23;20158;-89
2021/03/12 03:23:47;;;;;;;1.57;0.57;;;;;;;;;;6224082;23;20222;-89
2021/03/12 03:26:52;;;;;;;1.13;0.50;;;;;;;;;;6223892;23;20270;-90
2021/03/12 03:29:58;;;;;;;0.53;0.40;;;;;;;;;;6224135;23;20232;-88
2021/03/12 03:33:03;;;;;;;3.30;0.60;;;;;;;;;;6223581;23;20171;-90
2021/03/12 03:36:09;;;;;;;1.73;0.60;;;;;;;;;;6222743;23;20506;-92
2021/03/12 03:39:15;;;;;;;1.37;0.40;;;;;;;;;;6223200;23;20171;-88
2021/03/12 03:42:21;;;;;;;2.50;0.50;;;;;;;;;;6223171;23;20171;-88
2021/03/12 03:45:28;;;;;;;2.50;0.77;;;;;;;;;;6221804;23;20172;-89
2021/03/12 03:48:40;;;;;;;1.43;0.50;;;;;;;;;;6221727;23;20218;-89
2021/03/12 03:51:47;;;;;;;0.40;0.40;;;;;;;;;;6221410;23;20171;-89
2021/03/12 03:54:56;;;;;;;2.80;0.40;;;;;;;;;;6222385;23;20195;-87
2021/03/12 03:58:02;;;;;;;1.13;0.53;;;;;;;;;;6222434;23;20195;-90
2021/03/12 04:01:09;;;;;;;1.10;0.60;;;;;;;;;;6222783;23;20241;-90
2021/03/12 04:04:17;;;;;;;0.40;0.40;;;;;;;;;;6224819;23;20175;-91
2021/03/12 04:07:24;;;;;;;3.43;0.60;;;;;;;;;;6225754;23;20167;-89
2021/03/12 04:10:35;;;;;;;1.33;0.50;;;;;;;;;;6206922;23;20170;-88
2021/03/12 04:13:41;;;;;;;0.60;0.40;;;;;;;;;;6224244;23;20179;-88
2021/03/12 04:16:49;;;;;;;1.60;0.50;;;;;;;;;;6225523;23;20175;-89
2021/03/12 04:19:54;;;;;;;3.23;0.67;;;;;;;;;;6223013;23;20179;-87
2021/03/12 04:22:59;;;;;;;2.00;0.57;;;;;;;;;;6205787;23;20195;-88
2021/03/12 04:26:08;;;;;;;0.83;0.43;;;;;;;;;;6205077;23;20167;-89
2021/03/12 04:29:14;;;;;;;0.40;0.40;;;;;;;;;;6223401;23;20178;-90
2021/03/12 04:32:20;;;;;;;2.23;0.53;;;;;;;;;;6222977;23;20174;-90
2021/03/12 04:35:24;;;;;;;0.73;0.33;;;;;;;;;;6223305;23;20203;-90
2021/03/12 04:38:29;;;;;;;4.80;0.53;;;;;;;;;;6205991;23;20238;-88
2021/03/12 04:41:34;;;;;;;2.07;0.63;;;;;;;;;;6223210;23;20170;-89
2021/03/12 04:44:40;;;;;;;1.20;0.60;;;;;;;;;;6224281;23;20179;-87
2021/03/12 04:47:47;;;;;;;1.07;0.50;;;;;;;;;;6225950;23;20221;-88
2021/03/12 04:50:51;;;;;;;1.57;0.80;;;;;;;;;;6224077;23;20190;-88
2021/03/12 04:53:57;;;;;;;0.43;0.40;;;;;;;;;;6224153;23;20618;-88
2021/03/12 04:57:02;;;;;;;1.63;0.70;;;;;;;;;;6223667;23;20202;-90
2021/03/12 05:00:11;;;;;;;3.80;0.63;;;;;;;;;;6223903;23;20226;-91
2021/03/12 05:03:31;;;;;;;1.63;0.60;;;;;;;;;;6206833;23;20224;-88
2021/03/12 05:06:37;;;;;;;1.87;0.77;;;;;;;;;;6206082;23;20171;-89
2021/03/12 05:09:53;;;;;;;1.57;0.60;;;;;;;;;;6204442;23;20215;-89
2021/03/12 05:13:02;;;;;;;2.47;0.60;;;;;;;;;;6222930;23;20244;-89
2021/03/12 05:16:11;;;;;;;3.50;0.63;;;;;;;;;;6224040;23;20175;-88
2021/03/12 05:19:17;;;;;;;2.97;0.67;;;;;;;;;;6222710;23;20319;-89
2021/03/12 05:22:24;;;;;;;1.67;0.50;;;;;;;;;;6205728;23;20225;-90
2021/03/12 05:25:28;;;;;;;5.93;0.67;;;;;;;;;;6207326;23;20198;-88
2021/03/12 05:28:34;;;;;;;1.80;0.70;;;;;;;;;;6226150;23;20175;-89
2021/03/12 05:31:39;;;;;;;2.07;0.50;;;;;;;;;;6209331;23;20291;-89
2021/03/12 05:34:45;;;;;;;2.47;0.80;;;;;;;;;;6225381;23;20214;-90
2021/03/12 05:37:56;;;;;;;2.07;0.80;;;;;;;;;;6224731;23;20195;-90
2021/03/12 05:41:07;;;;;;;2.30;1.00;;;;;;;;;;6207901;23;20198;-88
2021/03/12 05:44:12;;;;;;;3.30;0.63;;;;;;;;;;6223370;23;20511;-89
2021/03/12 05:47:18;;;;;;;3.23;0.60;;;;;;;;;;6224438;23;20635;-90
2021/03/12 05:50:24;;;;;;;4.93;0.87;;;;;;;;;;6207918;23;20222;-89
2021/03/12 05:53:29;;;;;;;3.73;0.93;;;;;;;;;;6223010;23;20178;-90
2021/03/12 05:56:34;;;;;;;4.73;0.80;;;;;;;;;;6203817;23;20629;-90
2021/03/12 05:59:41;;;;;;;2.93;0.90;;;;;;;;;;6219872;23;20162;-90
2021/03/12 06:02:47;;;;;;;0.60;0.60;;;;;;;;;;6204923;23;20230;-90
2021/03/12 06:06:05;;;;;;;2.00;0.70;;;;;;;;;;6221551;23;20191;-90
2021/03/12 06:09:12;;;;;;;3.27;1.40;;;;;;;;;;6204751;23;20174;-92
2021/03/12 06:12:17;;;;;;;4.33;1.00;;;;;;;;;;6222891;23;20217;-91
2021/03/12 06:15:33;;;;;;;7.03;2.00;;;;;;;;;;6203733;23;20476;-90
2021/03/12 06:18:37;;;;;;;6.00;1.40;;;;;;;;;;6222020;23;20274;-90
2021/03/12 06:21:48;;;;;;;7.10;1.23;;;;;;;;;;6223020;23;20223;-90
2021/03/12 06:25:16;;;;;;;3.43;0.90;;;;;;;;;;6224855;23;20195;-90
2021/03/12 06:28:42;;;;;;;4.03;1.37;;;;;;;;;;6223163;23;20650;-90
2021/03/12 06:32:07;;;;;;;4.83;1.20;;;;;;;;;;6206980;23;20778;-87
2021/03/12 06:35:47;;;;;;;3.70;1.33;;;;;;;;;;6136862;23;20241;-91
2021/03/12 06:39:08;;;;;;;4.77;1.30;;;;;;;;;;6206124;23;20233;-88
2021/03/12 06:42:21;;;;;;;4.13;1.20;;;;;;;;;;6224139;23;20178;-88
2021/03/12 06:45:31;;;;;;;3.30;1.10;;;;;;;;;;6224297;23;20228;-87
2021/03/12 06:48:37;;;;;;;5.13;1.00;;;;;;;;;;6225098;23;20195;-89
2021/03/12 06:52:08;;;;;;;2.20;0.87;;;;;;;;;;6224445;23;20197;-89
2021/03/12 06:55:20;;;;;;;1.47;0.70;;;;;;;;;;6225798;23;20183;-89
2021/03/12 06:58:38;;;;;;;4.10;0.80;;;;;;;;;;6228793;23;20270;-88
2021/03/12 07:01:56;;;;;;;2.37;0.73;;;;;;;;;;6215057;23;20253;-88
2021/03/12 07:05:08;;;;;;;2.20;0.70;;;;;;;;;;6225486;23;20171;-90
2021/03/12 07:08:32;;;;;;;3.57;0.90;;;;;;;;;;6225019;23;20211;-88
2021/03/12 07:11:57;;;;;;;2.00;0.60;;;;;;;;;;6225538;23;20614;-89
2021/03/12 07:15:21;;;;;;;1.83;0.60;;;;;;;;;;6224236;23;20239;-91
2021/03/12 07:18:41;;;;;;;5.03;1.27;;;;;;;;;;6224865;23;20199;-90
2021/03/12 07:21:48;;;;;;;3.33;0.70;;;;;;;;;;6225116;23;20175;-90
2021/03/12 07:24:53;;;;;;;2.23;0.80;;;;;;;;;;6223954;23;20230;-89
2021/03/12 07:28:02;;;;;;;2.67;0.70;;;;;;;;;;6224250;22;20219;-90
2021/03/12 07:31:15;;;;;;;5.10;0.87;;;;;;;;;;6223355;23;20271;-89
2021/03/12 07:34:22;;;;;;;1.30;0.53;;;;;;;;;;6224649;23;20166;-88
2021/03/12 07:37:35;;;;;;;3.87;0.70;;;;;;;;;;6227271;23;20669;-89
2021/03/12 07:40:40;;;;;;;3.53;0.87;;;;;;;;;;6224921;23;20171;-90
2021/03/12 07:44:00;;;;;;;3.67;0.80;;;;;;;;;;6226962;23;20171;-88
2021/03/12 07:47:13;;;;;;;0.93;0.53;;;;;;;;;;6230487;23;20180;-89
2021/03/12 07:50:25;;;;;;;7.97;0.90;;;;;;;;;;6229784;23;20195;-90
2021/03/12 07:53:46;;;;;;;0.70;0.60;;;;;;;;;;6227048;23;20175;-88
2021/03/12 07:56:56;;;;;;;1.23;0.60;;;;;;;;;;6229680;23;20172;-89
2021/03/12 08:00:22;;;;;;;3.17;0.87;;;;;;;;;;6228094;23;20195;-87
2021/03/12 08:03:49;;;;;;;5.33;0.80;;;;;;;;;;6228640;23;20174;-89
2021/03/12 08:07:23;;;;;;;2.07;0.70;;;;;;;;;;6226235;23;20210;-89
2021/03/12 08:10:29;;;;;;;5.80;0.70;;;;;;;;;;6208487;23;20164;-89
2021/03/12 08:13:38;;;;;;;5.53;0.80;;;;;;;;;;6224686;23;20198;-90
2021/03/12 08:17:10;;;;;;;2.30;0.70;;;;;;;;;;6223956;23;20179;-90
2021/03/12 08:20:29;;;;;;;4.20;0.93;;;;;;;;;;6224707;23;20215;-88
2021/03/12 08:23:53;;;;;;;3.57;0.80;;;;;;;;;;6226872;23;20174;-88
2021/03/12 08:27:06;;;;;;;4.73;0.70;;;;;;;;;;6224921;23;20560;-89
2021/03/12 08:30:44;;;;;;;3.00;0.80;;;;;;;;;;6225769;23;20187;-89
2021/03/12 08:33:58;;;;;;;3.87;0.60;;;;;;;;;;6223649;23;20178;-88
2021/03/12 08:37:40;;;;;;;4.00;0.80;;;;;;;;;;6207589;23;20170;-89
2021/03/12 08:41:21;;;;;;;1.87;0.77;;;;;;;;;;6225083;23;20289;-90
2021/03/12 08:44:44;;;;;;;5.33;0.87;;;;;;;;;;6225993;23;20251;-90
2021/03/12 08:47:54;;;;;;;2.87;0.70;;;;;;;;;;6226235;23;20207;-88
2021/03/12 08:50:59;;;;;;;7.17;0.97;;;;;;;;;;6225107;23;20218;-87
2021/03/12 08:54:04;;;;;;;5.32;1.17;;;;;;;;;;6223397;23;20528;-89
2021/03/12 08:57:21;;;;;;;3.70;1.02;;;;;;;;;;6206029;23;20159;-89
2021/03/12 09:00:29;;;;;;;3.33;0.83;;;;;;;;;;6225767;23;20167;-88
2021/03/12 09:03:49;;;;;;;11.40;4.13;;;;;;;;;;6225477;23;20166;-89
2021/03/12 09:07:04;;;;;;;9.07;1.20;;;;;;;;;;6207900;23;20175;-90
2021/03/12 09:10:29;;;;;;;5.93;2.03;;;;;;;;;;6226109;22;20420;-91
2021/03/12 09:14:01;;;;;;;6.23;1.00;;;;;;;;;;6226096;23;20298;-91
2021/03/12 09:17:09;;;;;;;5.90;1.27;;;;;;;;;;6224242;23;20171;-89
2021/03/12 09:20:22;;;;;;;6.43;1.33;;;;;;;;;;6224684;23;20176;-90
2021/03/12 09:23:34;;;;;;;4.50;1.00;;;;;;;;;;6206568;23;20163;-89
2021/03/12 09:26:41;;;;;;;5.45;1.02;;;;;;;;;;6223749;23;20171;-89
2021/03/12 09:29:56;;;;;;;3.05;1.00;;;;;;;;;;6206572;23;20210;-89
2021/03/12 09:33:04;;;;;;;2.67;0.80;;;;;;;;;;6206344;23;20213;-88
2021/03/12 09:36:23;;;;;;;5.15;0.82;;;;;;;;;;6223490;23;20243;-89
2021/03/12 09:39:27;;;;;;;7.47;1.38;;;;;;;;;;6206425;23;20235;-90
2021/03/12 09:42:38;;;;;;;3.05;0.90;;;;;;;;;;6223623;23;20281;-89
2021/03/12 09:45:52;;;;;;;7.37;1.40;;;;;;;;;;6226177;23;20190;-89
2021/03/12 09:49:08;;;;;;;6.90;1.13;;;;;;;;;;6224046;23;20635;-90
2021/03/12 09:52:17;;;;;;;4.10;1.03;;;;;;;;;;6207942;23;20660;-89
2021/03/12 09:55:27;;;;;;;5.30;1.10;;;;;;;;;;6224392;23;20171;-89
2021/03/12 09:58:35;;;;;;;6.00;1.00;;;;;;;;;;6204265;23;20254;-90
2021/03/12 10:02:03;;;;;;;3.93;1.03;;;;;;;;;;6199433;23;20198;-89
2021/03/12 10:05:27;;;;;;;19.97;1.80;;;;;;;;;;6226077;23;20552;-89
2021/03/12 10:09:06;;;;;;;2.17;0.77;;;;;;;;;;6225499;23;20235;-90
2021/03/12 10:12:40;;;;;;;5.27;0.83;;;;;;;;;;6221530;23;20192;-89
2021/03/12 10:15:49;;;;;;;2.30;0.83;;;;;;;;;;6222416;23;20174;-90
2021/03/12 10:19:04;;;;;;;1.40;0.70;;;;;;;;;;6206897;23;20230;-90
2021/03/12 10:22:14;;;;;;;5.53;0.98;;;;;;;;;;6223792;23;20167;-88
2021/03/12 10:25:19;;;;;;;7.53;0.80;;;;;;;;;;6226405;23;20179;-89
2021/03/12 10:28:23;;;;;;;2.27;0.80;;;;;;;;;;6224313;23;20167;-88
2021/03/12 10:31:38;;;;;;;1.33;0.60;;;;;;;;;;6223033;23;20206;-90
2021/03/12 10:34:43;;;;;;;2.77;0.80;;;;;;;;;;6205905;23;20171;-88
2021/03/12 10:37:48;;;;;;;1.70;0.87;;;;;;;;;;6224735;23;20171;-89
2021/03/12 10:40:54;;;;;;;2.43;0.70;;;;;;;;;;6204102;23;20260;-89
2021/03/12 10:43:59;;;;;;;4.13;0.90;;;;;;;;;;6205221;23;20175;-88
2021/03/12 10:47:10;;;;;;;4.35;1.05;;;;;;;;;;6210232;23;20179;-88
2021/03/12 10:50:22;;;;;;;2.00;0.87;;;;;;;;;;6225959;23;20509;-88
2021/03/12 10:53:27;;;;;;;7.82;1.05;;;;;;;;;;6209476;23;20175;-89
2021/03/12 10:56:31;;;;;;;1.63;0.57;;;;;;;;;;6207849;23;20239;-88
2021/03/12 10:59:35;;;;;;;3.58;0.88;;;;;;;;;;6209933;23;20189;-89
2021/03/12 11:02:41;;;;;;;7.68;0.98;;;;;;;;;;6226462;23;20206;-90
2021/03/12 11:05:46;;;;;;;3.22;0.82;;;;;;;;;;6227209;23;20167;-89
2021/03/12 11:08:51;;;;;;;3.85;0.75;;;;;;;;;;6229008;23;20171;-89
2021/03/12 11:11:56;;;;;;;5.80;1.10;;;;;;;;;;6229363;23;20623;-89
2021/03/12 11:15:02;;;;;;;5.00;1.00;;;;;;;;;;6228565;23;20685;-90
2021/03/12 11:18:08;;;;;;;4.05;0.80;;;;;;;;;;6229952;23;20191;-91
2021/03/12 11:21:14;;;;;;;4.13;0.95;;;;;;;;;;6230254;23;20171;-89
2021/03/12 11:24:21;;;;;;;7.60;0.98;;;;;;;;;;6228034;23;20171;-93
2021/03/12 11:27:26;;;;;;;2.70;0.90;;;;;;;;;;6229051;23;20187;-88
2021/03/12 11:30:31;;;;;;;3.88;1.00;;;;;;;;;;6228981;23;20206;-89
2021/03/12 11:33:37;;;;;;;2.78;1.00;;;;;;;;;;6228328;23;20167;-90
2021/03/12 11:36:42;;;;;;;6.47;0.90;;;;;;;;;;6229273;23;20595;-88
2021/03/12 11:39:46;;;;;;;3.22;0.85;;;;;;;;;;6230524;23;20241;-89
2021/03/12 11:42:50;;;;;;;1.95;0.63;;;;;;;;;;6230502;23;20170;-91
2021/03/12 11:45:55;;;;;;;5.63;1.15;;;;;;;;;;6232109;23;20179;-89
2021/03/12 11:49:01;;;;;;;6.40;1.40;;;;;;;;;;6231646;23;20163;-88
2021/03/12 11:52:08;;;;;;;5.93;1.90;;;;;;;;;;6232340;22;20167;-88
2021/03/12 11:55:13;;;;;;;1.48;0.80;;;;;;;;;;6233909;23;20613;-90
2021/03/12 11:58:18;;;;;;;2.47;0.85;;;;;;;;;;6231567;23;20195;-88
2021/03/12 12:01:23;;;;;;;4.25;1.58;;;;;;;;;;6230972;23;20194;-90
2021/03/12 12:04:29;;;;;;;6.88;0.80;;;;;;;;;;6229334;23;20232;-90
2021/03/12 12:07:33;;;;;;;4.18;0.65;;;;;;;;;;6228572;23;20223;-90
2021/03/12 12:10:39;;;;;;;3.10;0.98;;;;;;;;;;6226679;23;20303;-89
2021/03/12 12:13:44;;;;;;;4.85;1.02;;;;;;;;;;6224791;23;20178;-90
2021/03/12 12:16:50;;;;;;;6.85;1.48;;;;;;;;;;6225053;23;20175;-89
2021/03/12 12:19:58;;;;;;;3.75;0.82;;;;;;;;;;6225340;23;20191;-89
2021/03/12 12:23:04;;;;;;;2.85;1.13;;;;;;;;;;6224863;23;20220;-89
2021/03/12 12:26:09;;;;;;;5.30;0.80;;;;;;;;;;6226780;23;20170;-89
2021/03/12 12:29:14;;;;;;;9.18;1.15;;;;;;;;;;6228334;22;20199;-89
2021/03/12 12:32:18;;;;;;;2.33;0.98;;;;;;;;;;6226106;23;20170;-89
2021/03/12 12:35:24;;;;;;;5.88;0.98;;;;;;;;;;6228182;23;20215;-91
2021/03/12 12:38:28;;;;;;;4.05;0.90;;;;;;;;;;6227174;23;20186;-88
2021/03/12 12:41:33;;;;;;;4.40;1.00;;;;;;;;;;6228722;22;20415;-89
2021/03/12 12:44:37;;;;;;;4.53;0.70;;;;;;;;;;6228219;23;20170;-89
2021/03/12 12:47:41;;;;;;;3.67;0.90;;;;;;;;;;6229315;22;20670;-91
2021/03/12 12:50:47;;;;;;;5.53;1.02;;;;;;;;;;6229446;23;20166;-88
2021/03/12 12:53:52;;;;;;;4.13;1.10;;;;;;;;;;6226303;23;20175;-89
2021/03/12 12:56:57;;;;;;;2.28;0.80;;;;;;;;;;6225946;23;20190;-89
2021/03/12 13:00:01;;;;;;;10.35;1.15;;;;;;;;;;6226838;23;20219;-90
2021/03/12 13:03:08;;;;;;;3.70;0.68;;;;;;;;;;6226021;23;20251;-88
2021/03/12 13:06:14;;;;;;;3.78;1.05;;;;;;;;;;6226452;23;20171;-90
2021/03/12 13:09:19;;;;;;;8.75;1.13;;;;;;;;;;6225559;23;20224;-90
2021/03/12 13:12:24;;;;;;;5.38;1.20;;;;;;;;;;6228353;23;20171;-89
2021/03/12 13:15:32;;;;;;;3.03;0.95;;;;;;;;;;6225086;23;20174;-89
2021/03/12 13:18:36;;;;;;;3.65;0.80;;;;;;;;;;6225079;23;20275;-90
2021/03/12 13:21:42;;;;;;;3.20;1.20;;;;;;;;;;6228020;23;20170;-89
2021/03/12 13:24:48;;;;;;;5.80;0.98;;;;;;;;;;6229751;23;20175;-88
2021/03/12 13:27:57;;;;;;;7.03;1.00;;;;;;;;;;6226129;23;20637;-88
2021/03/12 13:31:02;;;;;;;11.02;1.10;;;;;;;;;;6227043;23;20603;-88
2021/03/12 13:34:07;;;;;;;1.98;0.90;;;;;;;;;;6230726;23;20216;-88
2021/03/12 13:37:13;;;;;;;7.70;0.90;;;;;;;;;;6229496;23;20175;-88
2021/03/12 13:40:19;;;;;;;3.50;1.33;;;;;;;;;;6227113;23;20210;-91
2021/03/12 13:43:27;;;;;;;3.10;1.20;;;;;;;;;;6226776;23;20175;-90
2021/03/12 13:46:32;;;;;;;3.93;1.17;;;;;;;;;;6227428;23;20204;-89
2021/03/12 13:49:37;;;;;;;0.70;0.63;;;;;;;;;;6226315;22;20214;-88
2021/03/12 13:52:43;;;;;;;4.47;1.10;;;;;;;;;;6226233;23;20222;-88
2021/03/12 13:55:48;;;;;;;3.55;0.98;;;;;;;;;;6226051;23;20179;-89
2021/03/12 13:58:54;;;;;;;3.97;0.98;;;;;;;;;;6228026;23;20194;-88
2021/03/12 14:01:58;;;;;;;3.63;1.05;;;;;;;;;;6230039;23;20194;-88
2021/03/12 14:05:03;;;;;;;3.55;1.30;;;;;;;;;;6225731;23;20179;-88
2021/03/12 14:08:09;;;;;;;3.35;0.82;;;;;;;;;;6224830;23;20163;-87
2021/03/12 14:11:13;;;;;;;3.22;0.98;;;;;;;;;;6227120;23;20182;-90
2021/03/12 14:14:18;;;;;;;4.18;0.90;;;;;;;;;;6224485;23;20183;-90
2021/03/12 14:17:23;;;;;;;4.75;0.98;;;;;;;;;;6223364;23;20230;-89
2021/03/12 14:20:28;;;;;;;2.20;0.73;;;;;;;;;;6225388;23;20171;-88
2021/03/12 14:23:34;;;;;;;3.38;1.10;;;;;;;;;;6223194;23;20553;-89
2021/03/12 14:26:38;;;;;;;5.25;1.27;;;;;;;;;;6226412;23;20187;-89
2021/03/12 14:30:01;;;;;;;3.78;0.90;;;;;;;;;;6227086;23;20163;-88
2021/03/12 14:33:07;;;;;;;1.92;0.70;;;;;;;;;;6225573;22;20187;-91
2021/03/12 14:36:12;;;;;;;6.47;1.33;;;;;;;;;;6225607;23;20168;-89
2021/03/12 14:39:18;;;;;;;3.22;1.00;;;;;;;;;;6224313;23;20246;-89
2021/03/12 14:42:24;;;;;;;3.47;0.88;;;;;;;;;;6225448;23;20502;-90
2021/03/12 14:45:28;;;;;;;3.35;0.80;;;;;;;;;;6224670;23;20171;-89
2021/03/12 14:48:55;;;;;;;4.05;0.80;;;;;;;;;;6224668;23;20148;-91
2021/03/12 14:52:00;;;;;;;1.60;1.00;;;;;;;;;;6226447;23;20191;-88
2021/03/12 14:55:06;;;;;;;2.72;0.93;;;;;;;;;;6227509;23;20218;-90
2021/03/12 14:58:11;;;;;;;1.90;0.77;;;;;;;;;;6224254;23;20215;-89
2021/03/12 15:01:19;;;;;;;2.13;0.80;;;;;;;;;;6223415;23;20263;-91
2021/03/12 15:04:24;;;;;;;3.38;0.93;;;;;;;;;;6224654;23;20222;-90
2021/03/12 15:07:29;;;;;;;2.03;0.80;;;;;;;;;;6224219;23;20188;-91
2021/03/12 15:10:35;;;;;;;1.88;0.80;;;;;;;;;;6224189;23;20171;-91
2021/03/12 15:13:41;;;;;;;6.65;1.15;;;;;;;;;;6207167;23;20171;-92
2021/03/12 15:16:45;;;;;;;3.00;0.85;;;;;;;;;;6224863;23;20175;-90
2021/03/12 15:19:54;;;;;;;3.10;1.00;;;;;;;;;;6223797;23;20194;-90
2021/03/12 15:22:59;;;;;;;5.90;0.75;;;;;;;;;;6226372;23;20195;-90
2021/03/12 15:26:05;;;;;;;5.90;0.90;;;;;;;;;;6224196;23;20231;-89
2021/03/12 15:29:10;;;;;;;2.10;0.90;;;;;;;;;;6224244;23;20167;-90
2021/03/12 15:32:16;;;;;;;5.32;1.00;;;;;;;;;;6224742;23;20194;-92
2021/03/12 15:35:24;;;;;;;3.22;0.95;;;;;;;;;;6223830;23;20588;-90
2021/03/12 15:38:29;;;;;;;7.90;1.00;;;;;;;;;;6222858;23;20191;-88
2021/03/12 15:41:36;;;;;;;3.40;1.00;;;;;;;;;;6223526;23;20562;-88
2021/03/12 15:44:41;;;;;;;7.30;0.95;;;;;;;;;;6225945;23;20222;-88
2021/03/12 15:47:46;;;;;;;4.32;0.80;;;;;;;;;;6226280;23;20171;-88
2021/03/12 15:50:51;;;;;;;3.20;0.75;;;;;;;;;;6208503;23;20250;-88
2021/03/12 15:54:00;;;;;;;2.58;1.00;;;;;;;;;;6207914;23;20191;-89
2021/03/12 15:57:08;;;;;;;5.07;1.05;;;;;;;;;;6222934;23;20266;-89
2021/03/12 16:00:21;;;;;;;3.35;1.13;;;;;;;;;;6227093;23;20190;-91
2021/03/12 16:03:28;;;;;;;4.93;1.58;;;;;;;;;;6226285;23;20172;-91
2021/03/12 16:06:33;;;;;;;4.90;1.00;;;;;;;;;;6227001;23;20242;-88
2021/03/12 16:09:38;;;;;;;4.90;1.05;;;;;;;;;;6226880;23;20622;-89
2021/03/12 16:12:44;;;;;;;6.00;1.15;;;;;;;;;;6227750;22;20171;-91
2021/03/12 16:15:54;;;;;;;4.25;1.92;;;;;;;;;;6228675;23;20186;-89
2021/03/12 16:19:12;;;;;;;4.70;1.00;;;;;;;;;;6229540;23;20195;-90
2021/03/12 16:22:42;;;;;;;4.28;1.15;;;;;;;;;;6227029;23;20174;-90
2021/03/12 16:26:03;;;;;;;6.97;1.42;;;;;;;;;;6229099;23;20631;-90
2021/03/12 16:29:19;;;;;;;3.65;1.10;;;;;;;;;;6229234;23;20167;-89
2021/03/12 16:32:24;;;;;;;6.63;1.55;;;;;;;;;;6230437;23;20174;-90
2021/03/12 16:35:56;;;;;;;4.82;1.50;;;;;;;;;;6233681;23;20171;-89
2021/03/12 16:39:06;;;;;;;5.25;1.05;;;;;;;;;;6229304;23;20190;-91
2021/03/12 16:42:15;;;;;;;4.05;1.33;;;;;;;;;;6231961;23;20183;-90
2021/03/12 16:45:25;;;;;;;7.60;1.20;;;;;;;;;;6229704;23;20174;-92
2021/03/12 16:48:30;;;;;;;7.38;1.30;;;;;;;;;;6212810;23;20494;-90
2021/03/12 16:51:34;;;;;;;9.10;2.00;;;;;;;;;;6212184;23;20171;-91
2021/03/12 16:54:39;;;;;;;7.03;1.55;;;;;;;;;;6232561;23;20179;-90
2021/03/12 16:57:45;;;;;;;7.55;1.25;;;;;;;;;;6234509;23;20171;-89
2021/03/12 17:00:53;;;;;;;6.22;1.30;;;;;;;;;;6233611;23;20631;-91
2021/03/12 17:03:58;;;;;;;5.57;1.10;;;;;;;;;;6232009;23;20200;-91
2021/03/12 17:07:06;;;;;;;6.15;1.40;;;;;;;;;;6231646;23;20191;-89
2021/03/12 17:10:13;;;;;;;5.95;1.33;;;;;;;;;;6235218;23;20178;-89
2021/03/12 17:13:22;;;;;;;4.80;1.50;;;;;;;;;;6234012;23;20171;-89
2021/03/12 17:16:28;;;;;;;18.50;2.20;;;;;;;;;;6215876;23;20174;-89
2021/03/12 17:19:33;;;;;;;8.18;2.03;;;;;;;;;;6237673;23;20211;-89
2021/03/12 17:22:46;;;;;;;7.75;3.05;;;;;;;;;;6220963;23;20167;-89
2021/03/12 17:25:55;;;;;;;11.00;3.50;;;;;;;;;;6234007;23;20171;-90
2021/03/12 17:29:10;;;;;;;11.87;4.50;;;;;;;;;;6214915;23;20171;-90
2021/03/12 17:32:16;;;;;;;14.77;4.17;;;;;;;;;;6216208;23;20175;-91
2021/03/12 17:35:22;;;;;;;11.33;3.63;;;;;;;;;;6234758;23;20199;-90
2021/03/12 17:38:29;;;;;;;14.43;3.90;;;;;;;;;;6234303;23;20171;-90
2021/03/12 17:41:34;;;;;;;8.67;3.37;;;;;;;;;;6215360;23;20170;-90
2021/03/12 17:44:39;;;;;;;19.70;4.80;;;;;;;;;;6228068;23;20171;-92
2021/03/12 17:47:46;;;;;;;18.73;6.30;;;;;;;;;;6208760;23;20731;-90
2021/03/12 17:50:51;;;;;;;11.20;2.90;;;;;;;;;;6225535;23;20212;-90
2021/03/12 17:53:55;;;;;;;8.50;2.50;;;;;;;;;;6208196;23;20272;-89
2021/03/12 17:56:59;;;;;;;7.67;2.90;;;;;;;;;;6227951;23;20170;-89
2021/03/12 18:00:06;;;;;;;23.03;5.97;;;;;;;;;;6215393;23;20218;-90
2021/03/12 18:03:19;;;;;;;18.80;6.90;;;;;;;;;;6232732;23;20698;-90
2021/03/12 18:06:23;;;;;;;15.53;4.57;;;;;;;;;;6231317;23;20175;-89
2021/03/12 18:09:28;;;;;;;9.87;3.27;;;;;;;;;;6231051;22;20167;-89
2021/03/12 18:12:35;;;;;;;6.83;2.53;;;;;;;;;;6231350;23;20536;-90
2021/03/12 18:15:40;;;;;;;9.50;2.53;;;;;;;;;;6231331;23;20155;-90
2021/03/12 18:18:45;;;;;;;11.23;2.73;;;;;;;;;;6223809;23;20190;-89
2021/03/12 18:21:51;;;;;;;12.63;3.70;;;;;;;;;;6225743;22;20203;-89
2021/03/12 18:24:55;;;;;;;10.33;3.40;;;;;;;;;;6209097;23;20686;-90
2021/03/12 18:28:00;;;;;;;10.37;2.97;;;;;;;;;;6209916;23;20171;-88
2021/03/12 18:31:05;;;;;;;10.03;3.63;;;;;;;;;;6214529;23;20170;-88
2021/03/12 18:34:11;;;;;;;17.50;4.57;;;;;;;;;;6228737;23;20167;-89
2021/03/12 18:37:16;;;;;;;29.07;8.90;;;;;;;;;;6226331;23;20167;-87
2021/03/12 18:40:21;;;;;;;34.37;13.23;;;;;;;;;;6226620;23;20227;-88
2021/03/12 18:43:28;;;;;;;39.00;13.67;;;;;;;;;;6228046;23;20244;-90
2021/03/12 18:46:33;;;;;;;38.40;12.70;;;;;;;;;;6227278;23;20297;-89
2021/03/12 18:49:39;;;;;;;31.80;10.87;;;;;;;;;;6209033;23;20166;-89
2021/03/12 18:52:44;;;;;;;25.93;9.00;;;;;;;;;;6227460;23;20178;-89